EWG7KH EKYT-ELLX
Flight info
| Callsign | EWG7KH |
|---|---|
| Flight time | N/A |
| Altitude | 38000 |
| Route | ODDON DCT HMM DCT BITBU |
| Aircraft | A20N/M-SDE2E3FGHIRWXY/LB1 |
Departure
| Time | 2026-04-30 18:19 |
|---|---|
| Airport | Aalborg Airport (EKYT) |
Arrival
| Time | N/A |
|---|---|
| Airport | Luxembourg-Findel International Airport (ELLX) |
| Time | Latitude | Longitude | Altitude | Speed | Heading |
|---|---|---|---|---|---|
| 2026-04-30 17:39 | 57.08708 | 9.86971 | 18 ft | 0 kts | 64° |
| 2026-04-30 17:41 | 57.08708 | 9.86973 | 18 ft | 0 kts | 64° |
| 2026-04-30 18:09 | 57.08644 | 9.86908 | 18 ft | 4 kts | 329° |
| 2026-04-30 18:10 | 57.08635 | 9.86918 | 22 ft | 1 kts | 319° |
| 2026-04-30 18:13 | 57.08690 | 9.86830 | 18 ft | 10 kts | 318° |
| 2026-04-30 18:13 | 57.08912 | 9.86502 | 18 ft | 17 kts | 322° |
| 2026-04-30 18:14 | 57.09122 | 9.86202 | 17 ft | 17 kts | 323° |
| 2026-04-30 18:15 | 57.09344 | 9.86013 | 18 ft | 8 kts | 75° |
| 2026-04-30 18:15 | 57.09388 | 9.86631 | 18 ft | 23 kts | 84° |
| 2026-04-30 18:16 | 57.09429 | 9.87265 | 20 ft | 22 kts | 83° |
| 2026-04-30 18:16 | 57.09453 | 9.87658 | 17 ft | 4 kts | 75° |
| 2026-04-30 18:17 | 57.09489 | 9.87733 | 18 ft | 11 kts | 30° |
| 2026-04-30 18:17 | 57.09522 | 9.87752 | 18 ft | 0 kts | 6° |
| 2026-04-30 18:17 | 57.09544 | 9.87753 | 18 ft | 11 kts | 359° |
| 2026-04-30 18:18 | 57.09623 | 9.87676 | 18 ft | 15 kts | 311° |
| 2026-04-30 18:18 | 57.09642 | 9.87587 | 17 ft | 0 kts | 274° |
| 2026-04-30 18:18 | 57.09636 | 9.87422 | 16 ft | 43 kts | 263° |
| 2026-04-30 18:19 | 57.09577 | 9.86545 | 21 ft | 94 kts | 261° |
| 2026-04-30 18:19 | 57.09483 | 9.85042 | 17 ft | 139 kts | 264° |
| 2026-04-30 18:19 | 57.09383 | 9.83159 | 620 ft | 146 kts | 265° |
| 2026-04-30 18:19 | 57.09267 | 9.81305 | 1560 ft | 145 kts | 264° |
| 2026-04-30 18:20 | 57.09133 | 9.79390 | 2290 ft | 158 kts | 264° |
| 2026-04-30 18:20 | 57.08948 | 9.77285 | 2634 ft | 179 kts | 252° |
| 2026-04-30 18:20 | 57.08130 | 9.75394 | 2973 ft | 208 kts | 215° |
| 2026-04-30 18:20 | 57.06681 | 9.74626 | 3436 ft | 236 kts | 181° |
| 2026-04-30 18:21 | 57.05016 | 9.75405 | 4046 ft | 260 kts | 155° |
| 2026-04-30 18:21 | 57.03390 | 9.77013 | 4991 ft | 267 kts | 151° |
| 2026-04-30 18:21 | 57.01742 | 9.78612 | 6085 ft | 269 kts | 153° |
| 2026-04-30 18:21 | 57.00016 | 9.80040 | 7094 ft | 274 kts | 157° |
| 2026-04-30 18:22 | 56.98223 | 9.81315 | 8072 ft | 278 kts | 159° |
| 2026-04-30 18:22 | 56.94514 | 9.83670 | 10065 ft | 286 kts | 161° |
| 2026-04-30 18:22 | 56.92607 | 9.84839 | 10908 ft | 296 kts | 160° |
| 2026-04-30 18:23 | 56.90604 | 9.86070 | 11285 ft | 320 kts | 160° |
| 2026-04-30 18:23 | 56.88415 | 9.87421 | 11689 ft | 340 kts | 160° |
| 2026-04-30 18:23 | 56.86148 | 9.88820 | 12495 ft | 346 kts | 160° |
| 2026-04-30 18:23 | 56.83851 | 9.90236 | 13347 ft | 351 kts | 160° |
| 2026-04-30 18:24 | 56.79149 | 9.93132 | 14923 ft | 362 kts | 160° |
| 2026-04-30 18:24 | 56.76744 | 9.94614 | 15661 ft | 368 kts | 160° |
| 2026-04-30 18:24 | 56.74299 | 9.96119 | 16385 ft | 373 kts | 160° |
| 2026-04-30 18:25 | 56.71823 | 9.97640 | 17098 ft | 378 kts | 160° |
| 2026-04-30 18:25 | 56.66793 | 10.00721 | 18526 ft | 388 kts | 161° |
| 2026-04-30 18:25 | 56.64219 | 10.02295 | 19180 ft | 392 kts | 161° |
| 2026-04-30 18:26 | 56.58977 | 10.05492 | 20449 ft | 401 kts | 160° |
| 2026-04-30 18:26 | 56.56314 | 10.07114 | 21082 ft | 405 kts | 160° |
| 2026-04-30 18:26 | 56.53631 | 10.08745 | 21700 ft | 409 kts | 160° |
| 2026-04-30 18:27 | 56.48178 | 10.12053 | 22904 ft | 417 kts | 160° |
| 2026-04-30 18:27 | 56.45449 | 10.13706 | 23496 ft | 421 kts | 160° |
| 2026-04-30 18:28 | 56.39839 | 10.17095 | 24582 ft | 429 kts | 160° |
| 2026-04-30 18:28 | 56.36993 | 10.18810 | 25098 ft | 432 kts | 160° |
| 2026-04-30 18:28 | 56.31240 | 10.22268 | 26072 ft | 439 kts | 160° |
| 2026-04-30 18:29 | 56.28327 | 10.24014 | 26534 ft | 443 kts | 161° |
| 2026-04-30 18:29 | 56.19465 | 10.29312 | 27895 ft | 452 kts | 161° |
| 2026-04-30 18:30 | 56.13451 | 10.32892 | 28736 ft | 458 kts | 161° |
| 2026-04-30 18:30 | 56.07361 | 10.36505 | 29521 ft | 464 kts | 161° |
| 2026-04-30 18:31 | 56.04275 | 10.38331 | 29885 ft | 467 kts | 161° |
| 2026-04-30 18:31 | 55.98073 | 10.41993 | 30611 ft | 473 kts | 161° |
| 2026-04-30 18:32 | 55.91834 | 10.45664 | 31306 ft | 476 kts | 161° |
| 2026-04-30 18:32 | 55.88684 | 10.47513 | 31670 ft | 478 kts | 161° |
| 2026-04-30 18:32 | 55.82374 | 10.51206 | 32584 ft | 475 kts | 161° |
| 2026-04-30 18:33 | 55.79238 | 10.53036 | 33055 ft | 474 kts | 161° |
| 2026-04-30 18:33 | 55.72945 | 10.56701 | 33970 ft | 470 kts | 161° |
| 2026-04-30 18:33 | 55.69884 | 10.58479 | 34401 ft | 469 kts | 161° |
| 2026-04-30 18:34 | 55.66789 | 10.60274 | 34770 ft | 467 kts | 161° |
| 2026-04-30 18:34 | 55.60520 | 10.63095 | 35447 ft | 465 kts | 176° |
| 2026-04-30 18:34 | 55.57294 | 10.62980 | 35756 ft | 463 kts | 188° |
| 2026-04-30 18:35 | 55.54201 | 10.61717 | 36040 ft | 461 kts | 201° |
| 2026-04-30 18:35 | 55.51247 | 10.59388 | 36331 ft | 459 kts | 207° |
| 2026-04-30 18:35 | 55.48425 | 10.56912 | 36625 ft | 458 kts | 207° |
| 2026-04-30 18:36 | 55.42708 | 10.51932 | 37197 ft | 457 kts | 207° |
| 2026-04-30 18:36 | 55.39860 | 10.49462 | 37481 ft | 456 kts | 207° |
| 2026-04-30 18:36 | 55.34172 | 10.44548 | 38024 ft | 454 kts | 207° |
| 2026-04-30 18:37 | 55.31333 | 10.42102 | 38269 ft | 454 kts | 207° |
| 2026-04-30 18:37 | 55.28501 | 10.39668 | 38431 ft | 454 kts | 207° |
| 2026-04-30 18:37 | 55.25702 | 10.37266 | 38433 ft | 452 kts | 207° |
| 2026-04-30 18:38 | 55.20055 | 10.32433 | 38438 ft | 452 kts | 207° |
| 2026-04-30 18:38 | 55.14391 | 10.27599 | 38441 ft | 452 kts | 207° |
| 2026-04-30 18:39 | 55.08738 | 10.22791 | 38444 ft | 452 kts | 207° |
| 2026-04-30 18:39 | 55.03081 | 10.17995 | 38444 ft | 451 kts | 207° |
| 2026-04-30 18:40 | 54.97435 | 10.13223 | 38441 ft | 451 kts | 207° |
| 2026-04-30 18:40 | 54.91788 | 10.08464 | 38447 ft | 451 kts | 207° |
| 2026-04-30 18:41 | 54.86182 | 10.03756 | 38440 ft | 450 kts | 206° |
| 2026-04-30 18:41 | 54.80532 | 9.99025 | 38437 ft | 450 kts | 206° |
| 2026-04-30 18:42 | 54.75286 | 9.94646 | 38437 ft | 451 kts | 206° |
| 2026-04-30 18:42 | 54.66770 | 9.87563 | 38438 ft | 451 kts | 206° |
| 2026-04-30 18:45 | 54.35549 | 9.61878 | 38433 ft | 454 kts | 206° |
| 2026-04-30 18:46 | 54.29839 | 9.57228 | 38434 ft | 454 kts | 206° |
| 2026-04-30 18:46 | 54.24124 | 9.52588 | 38437 ft | 454 kts | 206° |
| 2026-04-30 18:47 | 54.18401 | 9.47956 | 38437 ft | 455 kts | 206° |
| 2026-04-30 18:47 | 54.12685 | 9.43343 | 38432 ft | 455 kts | 206° |
| 2026-04-30 18:48 | 54.06959 | 9.38737 | 38433 ft | 455 kts | 206° |
| 2026-04-30 18:48 | 54.01275 | 9.34178 | 38432 ft | 455 kts | 206° |
| 2026-04-30 18:49 | 53.95546 | 9.29598 | 38434 ft | 455 kts | 205° |
| 2026-04-30 18:49 | 53.89816 | 9.25030 | 38429 ft | 455 kts | 205° |
| 2026-04-30 18:50 | 53.84084 | 9.20475 | 38424 ft | 455 kts | 205° |
| 2026-04-30 18:50 | 53.78355 | 9.15935 | 38427 ft | 454 kts | 205° |
| 2026-04-30 18:51 | 53.72630 | 9.11413 | 38423 ft | 454 kts | 205° |
| 2026-04-30 18:51 | 53.66897 | 9.06898 | 38422 ft | 454 kts | 205° |
| 2026-04-30 18:52 | 53.61209 | 9.02432 | 38422 ft | 454 kts | 205° |
| 2026-04-30 18:52 | 53.55475 | 8.97943 | 38422 ft | 454 kts | 205° |
| 2026-04-30 18:53 | 53.49740 | 8.93467 | 38419 ft | 454 kts | 205° |
| 2026-04-30 18:53 | 53.44005 | 8.89005 | 38414 ft | 454 kts | 205° |
| 2026-04-30 18:54 | 53.38262 | 8.84550 | 38411 ft | 454 kts | 205° |
| 2026-04-30 18:54 | 53.32522 | 8.80110 | 38412 ft | 454 kts | 205° |
| 2026-04-30 18:55 | 53.27743 | 8.76423 | 38404 ft | 454 kts | 205° |
| 2026-04-30 18:55 | 53.19126 | 8.69799 | 38406 ft | 454 kts | 205° |
| 2026-04-30 18:56 | 53.10508 | 8.63203 | 38403 ft | 454 kts | 204° |
| 2026-04-30 18:57 | 53.01877 | 8.56628 | 38405 ft | 454 kts | 204° |
| 2026-04-30 18:57 | 52.96160 | 8.52288 | 38422 ft | 454 kts | 204° |
| 2026-04-30 18:58 | 52.87532 | 8.45762 | 38413 ft | 454 kts | 204° |
| 2026-04-30 18:59 | 52.78890 | 8.39254 | 38399 ft | 454 kts | 204° |
| 2026-04-30 19:00 | 52.67411 | 8.30654 | 38398 ft | 454 kts | 204° |
| 2026-04-30 19:01 | 52.55869 | 8.22057 | 38346 ft | 455 kts | 204° |
| 2026-04-30 19:01 | 52.52986 | 8.19917 | 38072 ft | 455 kts | 204° |
| 2026-04-30 19:02 | 52.47221 | 8.15648 | 37521 ft | 454 kts | 204° |
| 2026-04-30 19:02 | 52.41480 | 8.11409 | 36987 ft | 456 kts | 204° |
| 2026-04-30 19:03 | 52.35684 | 8.07142 | 36464 ft | 457 kts | 204° |
| 2026-04-30 19:03 | 52.29881 | 8.02881 | 35944 ft | 457 kts | 204° |
| 2026-04-30 19:04 | 52.24068 | 7.98626 | 35448 ft | 458 kts | 204° |
| 2026-04-30 19:04 | 52.18236 | 7.94370 | 34940 ft | 459 kts | 204° |
| 2026-04-30 19:05 | 52.12394 | 7.90118 | 34452 ft | 460 kts | 204° |
| 2026-04-30 19:05 | 52.06585 | 7.85902 | 33926 ft | 461 kts | 203° |
| 2026-04-30 19:06 | 52.00721 | 7.81657 | 33380 ft | 462 kts | 203° |
| 2026-04-30 19:06 | 51.97785 | 7.79535 | 33117 ft | 463 kts | 203° |
| 2026-04-30 19:06 | 51.91892 | 7.75283 | 32586 ft | 464 kts | 203° |
| 2026-04-30 19:07 | 51.85986 | 7.71046 | 32069 ft | 465 kts | 202° |
| 2026-04-30 19:07 | 51.82947 | 7.69123 | 31814 ft | 465 kts | 200° |
| 2026-04-30 19:08 | 51.76929 | 7.65285 | 31301 ft | 466 kts | 200° |
| 2026-04-30 19:08 | 51.70905 | 7.61427 | 30800 ft | 464 kts | 200° |
| 2026-04-30 19:08 | 51.67945 | 7.59544 | 30562 ft | 462 kts | 200° |
| 2026-04-30 19:09 | 51.61975 | 7.55763 | 30010 ft | 459 kts | 200° |
| 2026-04-30 19:09 | 51.59011 | 7.53891 | 29727 ft | 456 kts | 200° |
| 2026-04-30 19:09 | 51.56063 | 7.52032 | 29447 ft | 454 kts | 200° |
| 2026-04-30 19:10 | 51.50207 | 7.48346 | 28893 ft | 450 kts | 200° |
| 2026-04-30 19:10 | 51.44409 | 7.44708 | 28358 ft | 446 kts | 200° |
| 2026-04-30 19:11 | 51.41518 | 7.42897 | 28095 ft | 444 kts | 200° |
| 2026-04-30 19:11 | 51.35774 | 7.39307 | 27566 ft | 440 kts | 199° |
| 2026-04-30 19:11 | 51.32959 | 7.37551 | 27311 ft | 439 kts | 199° |
| 2026-04-30 19:12 | 51.30122 | 7.35784 | 27055 ft | 437 kts | 199° |
| 2026-04-30 19:12 | 51.27294 | 7.34025 | 26801 ft | 435 kts | 199° |
| 2026-04-30 19:12 | 51.24476 | 7.32274 | 26548 ft | 434 kts | 199° |
| 2026-04-30 19:13 | 51.18865 | 7.28795 | 26047 ft | 431 kts | 199° |
| 2026-04-30 19:13 | 51.13299 | 7.25352 | 25552 ft | 427 kts | 199° |
| 2026-04-30 19:13 | 51.10532 | 7.23643 | 25307 ft | 426 kts | 199° |
| 2026-04-30 19:14 | 51.07772 | 7.21942 | 25068 ft | 424 kts | 199° |
| 2026-04-30 19:14 | 51.05148 | 7.20326 | 24845 ft | 423 kts | 199° |
| 2026-04-30 19:14 | 51.02364 | 7.18918 | 24598 ft | 418 kts | 188° |
| 2026-04-30 19:14 | 50.99488 | 7.18652 | 24360 ft | 411 kts | 172° |
| 2026-04-30 19:15 | 50.96725 | 7.19581 | 24017 ft | 403 kts | 157° |
| 2026-04-30 19:15 | 50.91997 | 7.24030 | 22834 ft | 392 kts | 144° |
| 2026-04-30 19:15 | 50.89548 | 7.25921 | 22203 ft | 393 kts | 160° |
| 2026-04-30 19:16 | 50.86852 | 7.26635 | 21632 ft | 395 kts | 176° |
| 2026-04-30 19:16 | 50.84134 | 7.26038 | 21383 ft | 398 kts | 194° |
| 2026-04-30 19:16 | 50.79102 | 7.22174 | 21317 ft | 406 kts | 205° |
| 2026-04-30 19:17 | 50.76609 | 7.20078 | 21321 ft | 406 kts | 205° |
| 2026-04-30 19:17 | 50.71614 | 7.15908 | 21323 ft | 406 kts | 205° |
| 2026-04-30 19:17 | 50.69114 | 7.13832 | 21323 ft | 406 kts | 205° |
| 2026-04-30 19:18 | 50.64955 | 7.10390 | 21326 ft | 406 kts | 205° |
| 2026-04-30 19:18 | 50.61604 | 7.07623 | 21261 ft | 407 kts | 205° |
| 2026-04-30 19:18 | 50.59100 | 7.05558 | 21023 ft | 405 kts | 205° |
| 2026-04-30 19:19 | 50.56607 | 7.03504 | 20775 ft | 403 kts | 205° |
| 2026-04-30 19:19 | 50.54131 | 7.01466 | 20534 ft | 401 kts | 205° |
| 2026-04-30 19:19 | 50.49194 | 6.97411 | 20044 ft | 399 kts | 205° |
| 2026-04-30 19:20 | 50.46736 | 6.95396 | 19794 ft | 398 kts | 205° |
| 2026-04-30 19:20 | 50.44320 | 6.93419 | 19577 ft | 397 kts | 205° |
| 2026-04-30 19:20 | 50.39450 | 6.89437 | 18850 ft | 394 kts | 205° |
| 2026-04-30 19:21 | 50.37027 | 6.87460 | 18402 ft | 390 kts | 205° |
| 2026-04-30 19:21 | 50.32251 | 6.83569 | 17453 ft | 383 kts | 205° |
| 2026-04-30 19:22 | 50.27553 | 6.79751 | 16527 ft | 377 kts | 205° |
| 2026-04-30 19:22 | 50.20933 | 6.74378 | 15180 ft | 339 kts | 205° |
| 2026-04-30 19:23 | 50.14863 | 6.69478 | 13881 ft | 323 kts | 204° |
| 2026-04-30 19:24 | 50.10876 | 6.66268 | 12951 ft | 321 kts | 204° |
| 2026-04-30 19:24 | 50.08910 | 6.64686 | 12494 ft | 320 kts | 204° |
| 2026-04-30 19:24 | 50.04979 | 6.61525 | 11602 ft | 316 kts | 204° |
| 2026-04-30 19:25 | 49.99149 | 6.56899 | 10300 ft | 309 kts | 198° |
| 2026-04-30 19:26 | 49.95031 | 6.55446 | 9446 ft | 299 kts | 188° |
| 2026-04-30 19:26 | 49.91130 | 6.54232 | 9296 ft | 282 kts | 188° |
| 2026-04-30 19:26 | 49.89198 | 6.53629 | 9294 ft | 283 kts | 188° |
| 2026-04-30 19:27 | 49.85350 | 6.52328 | 9289 ft | 285 kts | 198° |
| 2026-04-30 19:27 | 49.82524 | 6.48008 | 9285 ft | 297 kts | 238° |
| 2026-04-30 19:28 | 49.81509 | 6.45227 | 9287 ft | 297 kts | 238° |
| 2026-04-30 19:28 | 49.79479 | 6.39679 | 9286 ft | 295 kts | 238° |
| 2026-04-30 19:29 | 49.77456 | 6.34146 | 9207 ft | 294 kts | 238° |
| 2026-04-30 19:29 | 49.76449 | 6.31396 | 8921 ft | 293 kts | 238° |
| 2026-04-30 19:30 | 49.73494 | 6.23242 | 7778 ft | 289 kts | 238° |
| 2026-04-30 19:30 | 49.71627 | 6.18015 | 7531 ft | 266 kts | 238° |
| 2026-04-30 19:31 | 49.69917 | 6.13147 | 7148 ft | 253 kts | 238° |
| 2026-04-30 19:31 | 49.69081 | 6.10758 | 6840 ft | 253 kts | 238° |
| 2026-04-30 19:31 | 49.67428 | 6.05976 | 6255 ft | 251 kts | 238° |
| 2026-04-30 19:32 | 49.66612 | 6.03585 | 5926 ft | 251 kts | 238° |
| 2026-04-30 19:32 | 49.65803 | 6.01202 | 5643 ft | 249 kts | 238° |
| 2026-04-30 19:32 | 49.65002 | 5.98836 | 5338 ft | 248 kts | 238° |
| 2026-04-30 19:32 | 49.64223 | 5.96510 | 5042 ft | 247 kts | 238° |
| 2026-04-30 19:33 | 49.63438 | 5.94154 | 4706 ft | 247 kts | 238° |
| 2026-04-30 19:33 | 49.62638 | 5.91769 | 4255 ft | 253 kts | 237° |
| 2026-04-30 19:33 | 49.61765 | 5.89367 | 3748 ft | 258 kts | 225° |
| 2026-04-30 19:33 | 49.60386 | 5.87715 | 3256 ft | 249 kts | 194° |
| 2026-04-30 19:34 | 49.58760 | 5.87395 | 3039 ft | 227 kts | 165° |
| 2026-04-30 19:34 | 49.57336 | 5.88088 | 2986 ft | 203 kts | 138° |